Chickamauga, Georgia
Current Conditions -  °F | °C
As of 7:09 PM on Monday 22 Dec 2014 (Local Time) from KCHA Reporting Station
Light Rain Light Rain  
Wind Chill: 45°   Ceiling: 1200
Heat Index: 49°   Visibility: 5mi
Dew Point: 45°   Wind: 8mph
Humidity: 86%   Direction: 190°S
Pressure: 29.86"   Gusts: NA
Location:  34.87°N, 85.29°W
Report Text: KCHA 230009Z 19007KT 5SM -RA BR OVC012 09/07 A2986 RMK AO2 RAB06 P0000 T00940072
Loading
Personal Weather Stations






























Interactive Weather Map New forecast layout! Learn more

10-Day Weather Forecast

Advertisements
Track Severe Weather on mobile